sensor_id;sensor_type;location;lat;lon;timestamp;P1;durP1;ratioP1;P2;durP2;ratioP2
50363;SDS011;36272;59.400;17.982;2023-04-23T00:00:18;5.32;;;2.00;;
50363;SDS011;36272;59.400;17.982;2023-04-23T00:05:20;8.25;;;2.10;;
50363;SDS011;36272;59.400;17.982;2023-04-23T00:10:25;7.55;;;1.95;;
50363;SDS011;36272;59.400;17.982;2023-04-23T00:15:28;10.75;;;2.15;;
50363;SDS011;36272;59.400;17.982;2023-04-23T00:20:30;9.32;;;2.35;;
50363;SDS011;36272;59.400;17.982;2023-04-23T00:25:31;12.65;;;2.40;;
50363;SDS011;36272;59.400;17.982;2023-04-23T00:30:33;10.60;;;2.30;;
50363;SDS011;36272;59.400;17.982;2023-04-23T00:35:35;12.75;;;2.55;;
50363;SDS011;36272;59.400;17.982;2023-04-23T00:40:37;14.30;;;2.35;;
50363;SDS011;36272;59.400;17.982;2023-04-23T00:45:39;8.70;;;2.25;;
50363;SDS011;36272;59.400;17.982;2023-04-23T00:50:40;11.02;;;2.75;;
50363;SDS011;36272;59.400;17.982;2023-04-23T00:55:42;15.07;;;2.63;;
50363;SDS011;36272;59.400;17.982;2023-04-23T01:00:45;12.82;;;2.60;;
50363;SDS011;36272;59.400;17.982;2023-04-23T01:05:49;10.38;;;2.70;;
50363;SDS011;36272;59.400;17.982;2023-04-23T01:10:51;22.90;;;3.33;;
50363;SDS011;36272;59.400;17.982;2023-04-23T01:15:54;20.95;;;3.60;;
50363;SDS011;36272;59.400;17.982;2023-04-23T01:20:57;28.52;;;3.38;;
50363;SDS011;36272;59.400;17.982;2023-04-23T01:25:59;21.27;;;3.15;;
50363;SDS011;36272;59.400;17.982;2023-04-23T01:31:01;18.00;;;3.55;;
50363;SDS011;36272;59.400;17.982;2023-04-23T01:36:04;16.85;;;3.25;;
50363;SDS011;36272;59.400;17.982;2023-04-23T01:41:06;12.30;;;3.10;;
50363;SDS011;36272;59.400;17.982;2023-04-23T01:46:07;19.92;;;3.20;;
50363;SDS011;36272;59.400;17.982;2023-04-23T01:51:10;15.77;;;3.15;;
50363;SDS011;36272;59.400;17.982;2023-04-23T01:56:12;18.63;;;3.95;;
50363;SDS011;36272;59.400;17.982;2023-04-23T02:01:16;20.83;;;2.63;;
50363;SDS011;36272;59.400;17.982;2023-04-23T02:06:18;12.20;;;2.83;;
50363;SDS011;36272;59.400;17.982;2023-04-23T02:11:19;15.55;;;3.30;;
50363;SDS011;36272;59.400;17.982;2023-04-23T02:16:21;14.30;;;2.75;;
50363;SDS011;36272;59.400;17.982;2023-04-23T02:21:24;7.65;;;2.53;;
50363;SDS011;36272;59.400;17.982;2023-04-23T02:26:27;4.65;;;2.40;;
50363;SDS011;36272;59.400;17.982;2023-04-23T02:31:29;7.25;;;2.75;;
50363;SDS011;36272;59.400;17.982;2023-04-23T02:36:31;10.32;;;2.83;;
50363;SDS011;36272;59.400;17.982;2023-04-23T02:41:33;12.43;;;3.40;;
50363;SDS011;36272;59.400;17.982;2023-04-23T02:46:35;6.18;;;2.58;;
50363;SDS011;36272;59.400;17.982;2023-04-23T02:51:37;8.23;;;2.60;;
50363;SDS011;36272;59.400;17.982;2023-04-23T02:56:39;8.15;;;2.72;;
50363;SDS011;36272;59.400;17.982;2023-04-23T03:01:41;9.00;;;2.83;;
50363;SDS011;36272;59.400;17.982;2023-04-23T03:06:42;8.98;;;2.75;;
50363;SDS011;36272;59.400;17.982;2023-04-23T03:11:44;7.28;;;2.80;;
50363;SDS011;36272;59.400;17.982;2023-04-23T03:16:46;10.02;;;2.50;;
50363;SDS011;36272;59.400;17.982;2023-04-23T03:21:47;13.07;;;3.08;;
50363;SDS011;36272;59.400;17.982;2023-04-23T03:26:51;12.30;;;3.33;;
50363;SDS011;36272;59.400;17.982;2023-04-23T03:31:53;14.48;;;3.03;;
50363;SDS011;36272;59.400;17.982;2023-04-23T03:36:55;13.52;;;3.53;;
50363;SDS011;36272;59.400;17.982;2023-04-23T03:41:56;20.25;;;3.58;;
50363;SDS011;36272;59.400;17.982;2023-04-23T03:46:58;16.05;;;3.55;;
50363;SDS011;36272;59.400;17.982;2023-04-23T03:52:00;13.38;;;3.20;;
50363;SDS011;36272;59.400;17.982;2023-04-23T03:57:01;16.92;;;3.22;;
50363;SDS011;36272;59.400;17.982;2023-04-23T04:02:03;8.68;;;3.03;;
50363;SDS011;36272;59.400;17.982;2023-04-23T04:07:06;9.35;;;2.75;;
50363;SDS011;36272;59.400;17.982;2023-04-23T04:12:08;12.75;;;3.38;;
50363;SDS011;36272;59.400;17.982;2023-04-23T04:17:09;12.45;;;3.30;;
50363;SDS011;36272;59.400;17.982;2023-04-23T04:22:12;9.02;;;2.60;;
50363;SDS011;36272;59.400;17.982;2023-04-23T04:27:17;14.05;;;2.80;;
50363;SDS011;36272;59.400;17.982;2023-04-23T04:32:18;6.78;;;2.45;;
50363;SDS011;36272;59.400;17.982;2023-04-23T04:37:20;5.43;;;2.67;;
50363;SDS011;36272;59.400;17.982;2023-04-23T04:42:22;6.80;;;2.53;;
50363;SDS011;36272;59.400;17.982;2023-04-23T04:47:24;10.98;;;3.00;;
50363;SDS011;36272;59.400;17.982;2023-04-23T04:52:26;11.18;;;2.85;;
50363;SDS011;36272;59.400;17.982;2023-04-23T04:57:27;6.65;;;2.70;;
50363;SDS011;36272;59.400;17.982;2023-04-23T05:02:29;9.93;;;2.75;;
50363;SDS011;36272;59.400;17.982;2023-04-23T05:07:31;11.65;;;3.00;;
50363;SDS011;36272;59.400;17.982;2023-04-23T05:12:33;7.60;;;2.60;;
50363;SDS011;36272;59.400;17.982;2023-04-23T05:17:35;5.63;;;2.58;;
50363;SDS011;36272;59.400;17.982;2023-04-23T05:22:38;12.90;;;2.72;;
50363;SDS011;36272;59.400;17.982;2023-04-23T05:27:43;8.80;;;2.72;;
50363;SDS011;36272;59.400;17.982;2023-04-23T05:32:45;6.45;;;3.10;;
50363;SDS011;36272;59.400;17.982;2023-04-23T05:37:55;7.45;;;2.50;;
50363;SDS011;36272;59.400;17.982;2023-04-23T05:42:57;13.75;;;2.90;;
50363;SDS011;36272;59.400;17.982;2023-04-23T05:47:59;9.43;;;2.72;;
50363;SDS011;36272;59.400;17.982;2023-04-23T05:53:06;8.05;;;2.40;;
50363;SDS011;36272;59.400;17.982;2023-04-23T05:58:11;11.13;;;2.72;;
50363;SDS011;36272;59.400;17.982;2023-04-23T06:03:15;6.50;;;2.47;;
50363;SDS011;36272;59.400;17.982;2023-04-23T06:08:17;11.93;;;2.40;;
50363;SDS011;36272;59.400;17.982;2023-04-23T06:18:24;8.90;;;2.60;;
50363;SDS011;36272;59.400;17.982;2023-04-23T06:23:26;4.93;;;2.25;;
50363;SDS011;36272;59.400;17.982;2023-04-23T06:28:27;7.40;;;2.65;;
50363;SDS011;36272;59.400;17.982;2023-04-23T06:33:29;8.10;;;2.45;;
50363;SDS011;36272;59.400;17.982;2023-04-23T06:38:31;7.38;;;2.67;;
50363;SDS011;36272;59.400;17.982;2023-04-23T06:43:35;10.68;;;2.63;;
50363;SDS011;36272;59.400;17.982;2023-04-23T06:48:37;7.78;;;2.58;;
50363;SDS011;36272;59.400;17.982;2023-04-23T06:53:39;13.85;;;3.00;;
50363;SDS011;36272;59.400;17.982;2023-04-23T06:58:40;8.00;;;2.72;;
50363;SDS011;36272;59.400;17.982;2023-04-23T07:03:42;10.63;;;2.53;;
50363;SDS011;36272;59.400;17.982;2023-04-23T07:08:49;6.10;;;2.80;;
50363;SDS011;36272;59.400;17.982;2023-04-23T07:13:51;7.53;;;2.85;;
50363;SDS011;36272;59.400;17.982;2023-04-23T07:18:53;5.93;;;2.70;;
50363;SDS011;36272;59.400;17.982;2023-04-23T07:23:55;7.18;;;2.40;;
50363;SDS011;36272;59.400;17.982;2023-04-23T07:28:58;7.68;;;2.20;;
50363;SDS011;36272;59.400;17.982;2023-04-23T07:34:01;6.28;;;2.45;;
50363;SDS011;36272;59.400;17.982;2023-04-23T07:39:03;6.05;;;2.45;;
50363;SDS011;36272;59.400;17.982;2023-04-23T07:44:05;5.68;;;2.63;;
50363;SDS011;36272;59.400;17.982;2023-04-23T07:49:07;5.47;;;2.60;;
50363;SDS011;36272;59.400;17.982;2023-04-23T07:54:09;8.90;;;2.50;;
50363;SDS011;36272;59.400;17.982;2023-04-23T07:59:14;5.78;;;2.38;;
50363;SDS011;36272;59.400;17.982;2023-04-23T08:10:18;5.70;;;1.67;;
50363;SDS011;36272;59.400;17.982;2023-04-23T08:16:03;4.88;;;1.92;;
50363;SDS011;36272;59.400;17.982;2023-04-23T08:21:29;3.10;;;1.90;;
50363;SDS011;36272;59.400;17.982;2023-04-23T08:26:34;5.43;;;1.67;;
50363;SDS011;36272;59.400;17.982;2023-04-23T08:31:44;11.43;;;2.08;;
50363;SDS011;36272;59.400;17.982;2023-04-23T08:36:58;7.07;;;2.00;;
50363;SDS011;36272;59.400;17.982;2023-04-23T08:42:03;7.00;;;1.92;;
50363;SDS011;36272;59.400;17.982;2023-04-23T08:47:11;4.72;;;1.65;;
50363;SDS011;36272;59.400;17.982;2023-04-23T08:52:24;5.18;;;1.55;;
50363;SDS011;36272;59.400;17.982;2023-04-23T08:57:29;8.75;;;1.63;;
50363;SDS011;36272;59.400;17.982;2023-04-23T09:02:32;7.07;;;1.90;;
50363;SDS011;36272;59.400;17.982;2023-04-23T09:07:35;7.63;;;1.98;;
50363;SDS011;36272;59.400;17.982;2023-04-23T09:12:38;9.85;;;2.28;;
50363;SDS011;36272;59.400;17.982;2023-04-23T09:17:47;21.25;;;2.42;;
50363;SDS011;36272;59.400;17.982;2023-04-23T09:23:05;7.43;;;2.00;;
50363;SDS011;36272;59.400;17.982;2023-04-23T09:28:08;7.10;;;1.88;;
50363;SDS011;36272;59.400;17.982;2023-04-23T09:33:11;4.97;;;1.90;;
50363;SDS011;36272;59.400;17.982;2023-04-23T09:38:13;6.20;;;1.95;;
50363;SDS011;36272;59.400;17.982;2023-04-23T09:43:15;10.27;;;2.60;;
50363;SDS011;36272;59.400;17.982;2023-04-23T09:48:17;12.85;;;2.42;;
50363;SDS011;36272;59.400;17.982;2023-04-23T09:53:18;13.48;;;1.58;;
50363;SDS011;36272;59.400;17.982;2023-04-23T09:58:20;13.38;;;2.42;;
50363;SDS011;36272;59.400;17.982;2023-04-23T10:03:28;26.95;;;2.78;;
50363;SDS011;36272;59.400;17.982;2023-04-23T10:08:32;17.83;;;2.42;;
50363;SDS011;36272;59.400;17.982;2023-04-23T10:13:34;24.38;;;2.63;;
50363;SDS011;36272;59.400;17.982;2023-04-23T10:18:37;10.98;;;1.90;;
50363;SDS011;36272;59.400;17.982;2023-04-23T10:23:39;16.45;;;1.90;;
50363;SDS011;36272;59.400;17.982;2023-04-23T10:28:47;12.77;;;1.60;;
50363;SDS011;36272;59.400;17.982;2023-04-23T10:33:54;7.32;;;1.83;;
50363;SDS011;36272;59.400;17.982;2023-04-23T10:38:57;5.47;;;1.50;;
50363;SDS011;36272;59.400;17.982;2023-04-23T10:44:04;27.17;;;2.83;;
50363;SDS011;36272;59.400;17.982;2023-04-23T10:49:10;10.30;;;1.55;;
50363;SDS011;36272;59.400;17.982;2023-04-23T10:54:17;9.07;;;1.70;;
50363;SDS011;36272;59.400;17.982;2023-04-23T10:59:20;9.10;;;1.90;;
50363;SDS011;36272;59.400;17.982;2023-04-23T11:04:26;14.10;;;2.80;;
50363;SDS011;36272;59.400;17.982;2023-04-23T11:09:44;6.45;;;1.85;;
50363;SDS011;36272;59.400;17.982;2023-04-23T11:15:24;12.70;;;1.90;;
50363;SDS011;36272;59.400;17.982;2023-04-23T11:20:26;9.57;;;1.67;;
50363;SDS011;36272;59.400;17.982;2023-04-23T11:25:36;10.90;;;1.98;;
50363;SDS011;36272;59.400;17.982;2023-04-23T11:31:05;9.43;;;2.25;;
50363;SDS011;36272;59.400;17.982;2023-04-23T11:36:07;6.32;;;1.77;;
50363;SDS011;36272;59.400;17.982;2023-04-23T11:41:21;12.00;;;2.30;;
50363;SDS011;36272;59.400;17.982;2023-04-23T11:46:23;15.68;;;1.77;;
50363;SDS011;36272;59.400;17.982;2023-04-23T11:51:25;11.57;;;2.10;;
50363;SDS011;36272;59.400;17.982;2023-04-23T11:56:30;18.23;;;2.38;;
50363;SDS011;36272;59.400;17.982;2023-04-23T12:01:39;6.88;;;1.85;;
50363;SDS011;36272;59.400;17.982;2023-04-23T12:06:51;15.57;;;2.53;;
50363;SDS011;36272;59.400;17.982;2023-04-23T12:11:54;9.52;;;2.15;;
50363;SDS011;36272;59.400;17.982;2023-04-23T12:17:01;10.80;;;2.13;;
50363;SDS011;36272;59.400;17.982;2023-04-23T12:22:10;10.68;;;1.95;;
50363;SDS011;36272;59.400;17.982;2023-04-23T12:27:13;26.70;;;2.40;;
50363;SDS011;36272;59.400;17.982;2023-04-23T12:32:19;10.05;;;2.13;;
50363;SDS011;36272;59.400;17.982;2023-04-23T12:37:25;5.85;;;1.85;;
50363;SDS011;36272;59.400;17.982;2023-04-23T12:42:28;10.25;;;1.98;;
50363;SDS011;36272;59.400;17.982;2023-04-23T12:47:33;10.80;;;1.95;;
50363;SDS011;36272;59.400;17.982;2023-04-23T12:52:35;6.22;;;1.88;;
50363;SDS011;36272;59.400;17.982;2023-04-23T12:57:36;12.25;;;2.00;;
50363;SDS011;36272;59.400;17.982;2023-04-23T13:02:46;11.40;;;1.90;;
50363;SDS011;36272;59.400;17.982;2023-04-23T13:07:49;8.93;;;2.40;;
50363;SDS011;36272;59.400;17.982;2023-04-23T13:12:53;9.90;;;2.42;;
50363;SDS011;36272;59.400;17.982;2023-04-23T13:17:56;6.85;;;2.80;;
50363;SDS011;36272;59.400;17.982;2023-04-23T13:23:01;14.02;;;2.70;;
50363;SDS011;36272;59.400;17.982;2023-04-23T13:28:09;6.05;;;2.80;;
50363;SDS011;36272;59.400;17.982;2023-04-23T13:33:18;7.45;;;2.90;;
50363;SDS011;36272;59.400;17.982;2023-04-23T13:38:25;7.57;;;3.22;;
50363;SDS011;36272;59.400;17.982;2023-04-23T13:43:41;11.90;;;3.42;;
50363;SDS011;36272;59.400;17.982;2023-04-23T13:49:13;10.75;;;4.05;;
50363;SDS011;36272;59.400;17.982;2023-04-23T13:54:15;10.25;;;4.10;;
50363;SDS011;36272;59.400;17.982;2023-04-23T13:59:17;9.55;;;3.40;;
50363;SDS011;36272;59.400;17.982;2023-04-23T14:04:21;13.52;;;4.72;;
50363;SDS011;36272;59.400;17.982;2023-04-23T14:09:26;14.57;;;4.40;;
50363;SDS011;36272;59.400;17.982;2023-04-23T14:14:30;37.42;;;5.13;;
50363;SDS011;36272;59.400;17.982;2023-04-23T14:19:31;14.98;;;4.07;;
50363;SDS011;36272;59.400;17.982;2023-04-23T14:24:43;12.02;;;5.00;;
50363;SDS011;36272;59.400;17.982;2023-04-23T14:34:56;31.80;;;5.90;;
50363;SDS011;36272;59.400;17.982;2023-04-23T14:40:03;15.17;;;5.43;;
50363;SDS011;36272;59.400;17.982;2023-04-23T14:45:06;12.30;;;6.13;;
50363;SDS011;36272;59.400;17.982;2023-04-23T14:50:08;18.45;;;6.63;;
50363;SDS011;36272;59.400;17.982;2023-04-23T14:55:10;16.27;;;8.38;;
50363;SDS011;36272;59.400;17.982;2023-04-23T15:00:15;17.45;;;6.53;;
50363;SDS011;36272;59.400;17.982;2023-04-23T15:05:17;15.15;;;6.72;;
50363;SDS011;36272;59.400;17.982;2023-04-23T15:10:20;21.67;;;6.68;;
50363;SDS011;36272;59.400;17.982;2023-04-23T15:20:56;19.60;;;7.40;;
50363;SDS011;36272;59.400;17.982;2023-04-23T15:25:58;29.25;;;7.57;;
50363;SDS011;36272;59.400;17.982;2023-04-23T15:31:04;26.15;;;7.25;;
50363;SDS011;36272;59.400;17.982;2023-04-23T15:36:09;18.85;;;7.18;;
50363;SDS011;36272;59.400;17.982;2023-04-23T15:41:10;15.77;;;6.83;;
50363;SDS011;36272;59.400;17.982;2023-04-23T15:46:13;17.17;;;7.13;;
50363;SDS011;36272;59.400;17.982;2023-04-23T15:51:15;18.63;;;6.70;;
50363;SDS011;36272;59.400;17.982;2023-04-23T15:56:17;40.17;;;7.72;;
50363;SDS011;36272;59.400;17.982;2023-04-23T16:01:19;14.13;;;6.60;;
50363;SDS011;36272;59.400;17.982;2023-04-23T16:06:23;19.57;;;7.50;;
50363;SDS011;36272;59.400;17.982;2023-04-23T16:11:37;20.73;;;7.25;;
50363;SDS011;36272;59.400;17.982;2023-04-23T16:16:41;18.40;;;7.25;;
50363;SDS011;36272;59.400;17.982;2023-04-23T16:21:48;21.92;;;7.93;;
50363;SDS011;36272;59.400;17.982;2023-04-23T16:26:53;21.80;;;8.20;;
50363;SDS011;36272;59.400;17.982;2023-04-23T16:38:08;25.70;;;9.98;;
50363;SDS011;36272;59.400;17.982;2023-04-23T16:43:16;25.17;;;10.17;;
50363;SDS011;36272;59.400;17.982;2023-04-23T16:48:19;20.98;;;9.98;;
50363;SDS011;36272;59.400;17.982;2023-04-23T16:53:25;19.52;;;8.90;;
50363;SDS011;36272;59.400;17.982;2023-04-23T16:58:32;19.33;;;9.38;;
50363;SDS011;36272;59.400;17.982;2023-04-23T17:03:36;17.77;;;9.13;;
50363;SDS011;36272;59.400;17.982;2023-04-23T17:08:43;17.65;;;8.52;;
50363;SDS011;36272;59.400;17.982;2023-04-23T17:13:54;22.25;;;9.30;;
50363;SDS011;36272;59.400;17.982;2023-04-23T17:18:56;16.85;;;7.97;;
50363;SDS011;36272;59.400;17.982;2023-04-23T17:24:01;19.80;;;9.60;;
50363;SDS011;36272;59.400;17.982;2023-04-23T17:29:03;18.63;;;8.80;;
50363;SDS011;36272;59.400;17.982;2023-04-23T17:34:05;15.98;;;8.52;;
50363;SDS011;36272;59.400;17.982;2023-04-23T17:39:12;13.00;;;9.10;;
50363;SDS011;36272;59.400;17.982;2023-04-23T17:44:13;17.23;;;9.73;;
50363;SDS011;36272;59.400;17.982;2023-04-23T17:49:15;21.05;;;9.35;;
50363;SDS011;36272;59.400;17.982;2023-04-23T17:54:19;18.50;;;9.80;;
50363;SDS011;36272;59.400;17.982;2023-04-23T17:59:21;23.42;;;10.23;;
50363;SDS011;36272;59.400;17.982;2023-04-23T18:04:22;17.92;;;10.50;;
50363;SDS011;36272;59.400;17.982;2023-04-23T18:09:32;22.60;;;12.07;;
50363;SDS011;36272;59.400;17.982;2023-04-23T18:14:54;23.65;;;12.00;;
50363;SDS011;36272;59.400;17.982;2023-04-23T18:20:01;25.52;;;12.98;;
50363;SDS011;36272;59.400;17.982;2023-04-23T18:25:07;23.98;;;13.48;;
50363;SDS011;36272;59.400;17.982;2023-04-23T18:30:12;22.33;;;14.50;;
50363;SDS011;36272;59.400;17.982;2023-04-23T18:35:18;24.33;;;16.10;;
50363;SDS011;36272;59.400;17.982;2023-04-23T18:40:19;31.02;;;18.60;;
50363;SDS011;36272;59.400;17.982;2023-04-23T18:45:24;33.38;;;19.42;;
50363;SDS011;36272;59.400;17.982;2023-04-23T18:55:43;37.90;;;18.45;;
50363;SDS011;36272;59.400;17.982;2023-04-23T19:00:51;30.88;;;19.73;;
50363;SDS011;36272;59.400;17.982;2023-04-23T19:05:53;31.10;;;20.45;;
50363;SDS011;36272;59.400;17.982;2023-04-23T19:11:04;44.05;;;21.15;;
50363;SDS011;36272;59.400;17.982;2023-04-23T19:16:06;38.13;;;21.52;;
50363;SDS011;36272;59.400;17.982;2023-04-23T19:21:35;35.92;;;21.05;;
50363;SDS011;36272;59.400;17.982;2023-04-23T19:27:05;33.45;;;22.20;;
50363;SDS011;36272;59.400;17.982;2023-04-23T19:32:13;36.28;;;23.20;;
50363;SDS011;36272;59.400;17.982;2023-04-23T19:42:56;43.47;;;24.97;;
50363;SDS011;36272;59.400;17.982;2023-04-23T19:48:57;40.80;;;25.02;;
50363;SDS011;36272;59.400;17.982;2023-04-23T19:54:00;39.85;;;25.83;;
50363;SDS011;36272;59.400;17.982;2023-04-23T19:59:02;37.75;;;25.80;;
50363;SDS011;36272;59.400;17.982;2023-04-23T20:04:04;41.10;;;25.92;;
50363;SDS011;36272;59.400;17.982;2023-04-23T20:09:09;44.80;;;25.80;;
50363;SDS011;36272;59.400;17.982;2023-04-23T20:14:21;45.67;;;27.90;;
50363;SDS011;36272;59.400;17.982;2023-04-23T20:19:23;43.35;;;25.27;;
50363;SDS011;36272;59.400;17.982;2023-04-23T20:24:28;44.53;;;25.75;;
50363;SDS011;36272;59.400;17.982;2023-04-23T20:29:29;44.75;;;26.10;;
50363;SDS011;36272;59.400;17.982;2023-04-23T20:34:31;44.35;;;27.45;;
50363;SDS011;36272;59.400;17.982;2023-04-23T20:39:36;46.60;;;27.63;;
50363;SDS011;36272;59.400;17.982;2023-04-23T20:44:39;38.97;;;22.98;;
50363;SDS011;36272;59.400;17.982;2023-04-23T20:49:43;27.17;;;16.75;;
50363;SDS011;36272;59.400;17.982;2023-04-23T20:54:49;20.10;;;12.50;;
50363;SDS011;36272;59.400;17.982;2023-04-23T20:59:51;19.88;;;12.00;;
50363;SDS011;36272;59.400;17.982;2023-04-23T21:04:52;18.35;;;9.77;;
50363;SDS011;36272;59.400;17.982;2023-04-23T21:09:54;19.95;;;10.20;;
50363;SDS011;36272;59.400;17.982;2023-04-23T21:14:56;24.75;;;11.93;;
50363;SDS011;36272;59.400;17.982;2023-04-23T21:20:00;18.65;;;12.07;;
50363;SDS011;36272;59.400;17.982;2023-04-23T21:25:02;23.35;;;12.20;;
50363;SDS011;36272;59.400;17.982;2023-04-23T21:30:05;18.35;;;11.25;;
50363;SDS011;36272;59.400;17.982;2023-04-23T21:35:16;19.85;;;9.60;;
50363;SDS011;36272;59.400;17.982;2023-04-23T21:40:18;13.40;;;9.70;;
50363;SDS011;36272;59.400;17.982;2023-04-23T21:45:20;19.35;;;9.95;;
50363;SDS011;36272;59.400;17.982;2023-04-23T21:50:22;17.85;;;8.95;;
50363;SDS011;36272;59.400;17.982;2023-04-23T21:55:25;14.57;;;8.82;;
50363;SDS011;36272;59.400;17.982;2023-04-23T22:00:28;14.30;;;8.43;;
50363;SDS011;36272;59.400;17.982;2023-04-23T22:05:29;11.93;;;7.78;;
50363;SDS011;36272;59.400;17.982;2023-04-23T22:10:32;13.50;;;7.88;;
50363;SDS011;36272;59.400;17.982;2023-04-23T22:15:35;11.73;;;7.03;;
50363;SDS011;36272;59.400;17.982;2023-04-23T22:20:37;11.40;;;6.95;;
50363;SDS011;36272;59.400;17.982;2023-04-23T22:25:39;11.15;;;7.40;;
50363;SDS011;36272;59.400;17.982;2023-04-23T22:30:41;11.10;;;7.30;;
50363;SDS011;36272;59.400;17.982;2023-04-23T22:35:42;11.70;;;6.68;;
50363;SDS011;36272;59.400;17.982;2023-04-23T22:40:44;8.57;;;5.85;;
50363;SDS011;36272;59.400;17.982;2023-04-23T22:45:48;8.50;;;5.82;;
50363;SDS011;36272;59.400;17.982;2023-04-23T22:50:50;9.85;;;5.55;;
50363;SDS011;36272;59.400;17.982;2023-04-23T22:55:52;7.40;;;4.97;;
50363;SDS011;36272;59.400;17.982;2023-04-23T23:00:54;8.80;;;5.15;;
50363;SDS011;36272;59.400;17.982;2023-04-23T23:05:56;5.78;;;4.38;;
50363;SDS011;36272;59.400;17.982;2023-04-23T23:11:00;7.65;;;4.43;;
50363;SDS011;36272;59.400;17.982;2023-04-23T23:16:05;6.57;;;4.25;;
50363;SDS011;36272;59.400;17.982;2023-04-23T23:21:07;5.60;;;4.15;;
50363;SDS011;36272;59.400;17.982;2023-04-23T23:26:09;9.43;;;4.80;;
50363;SDS011;36272;59.400;17.982;2023-04-23T23:31:11;7.60;;;4.63;;
50363;SDS011;36272;59.400;17.982;2023-04-23T23:36:13;7.15;;;4.82;;
50363;SDS011;36272;59.400;17.982;2023-04-23T23:41:14;8.95;;;4.80;;
50363;SDS011;36272;59.400;17.982;2023-04-23T23:46:16;5.85;;;4.18;;
50363;SDS011;36272;59.400;17.982;2023-04-23T23:51:18;6.10;;;4.40;;
50363;SDS011;36272;59.400;17.982;2023-04-23T23:56:20;6.90;;;4.85;;
